Time;durP1;ratioP1;P1;durP2;ratioP2;P2;SDS_P1;SDS_P2;PMS_P1;PMS_P2;Temp;Humidity;BMP_temperature;BMP_pressure;BME280_temperature;BME280_humidity;BME280_pressure;Samples;Min_cycle;Max_cycle;Signal;HPM_P1;HPM_P2
2023/01/22 00:00:07;;;;;;;;;;;;;;;1.78;100.00;100568.06;5548122;32;34608;-73
2023/01/22 00:03:14;;;;;;;;;;;;;;;1.85;100.00;100561.44;5547141;32;34511;-73
2023/01/22 00:06:24;;;;;;;;;;;;;;;1.83;100.00;100549.41;5534675;32;33959;-73
2023/01/22 00:09:32;;;;;;;;;;;;;;;1.79;100.00;100553.19;5547315;32;35186;-73
2023/01/22 00:12:43;;;;;;;;;;;;;;;1.82;100.00;100560.81;5548091;32;34449;-73
2023/01/22 00:15:49;;;;;;;;;;;;;;;1.81;100.00;100565.22;5546958;32;35173;-73
2023/01/22 00:19:00;;;;;;;;;;;;;;;1.90;100.00;100574.19;5546644;32;34265;-73
2023/01/22 00:22:10;;;;;;;;;;;;;;;1.77;100.00;100582.06;5547793;32;34282;-72
2023/01/22 00:25:15;;;;;;;;;;;;;;;1.82;100.00;100574.72;5546771;32;34539;-74
2023/01/22 00:28:20;;;;;;;;;;;;;;;1.86;100.00;100572.72;5547394;32;33935;-73
2023/01/22 00:31:28;;;;;;;;;;;;;;;1.94;100.00;100573.03;5546642;32;34366;-72
2023/01/22 00:34:36;;;;;;;;;;;;;;;1.86;100.00;100575.34;5547505;32;34146;-72
2023/01/22 00:37:46;;;;;;;;;;;;;;;1.90;100.00;100576.81;5547634;32;35055;-72
2023/01/22 00:40:53;;;;;;;;;;;;;;;1.88;100.00;100586.56;5553894;32;34365;-73
2023/01/22 00:44:01;;;;;;;;;;;;;;;1.82;100.00;100585.19;5553715;32;34211;-73
2023/01/22 00:47:07;;;;;;;;;;;;;;;1.81;100.00;100578.28;5556405;32;35061;-73
2023/01/22 00:50:12;;;;;;;;;;;;;;;1.87;100.00;100580.47;5560985;32;34235;-73
2023/01/22 00:53:16;;;;;;;;;;;;;;;1.91;100.00;100587.16;5554695;32;34114;-73
2023/01/22 00:56:20;;;;;;;;;;;;;;;1.95;100.00;100588.63;5544097;32;34508;-74
2023/01/22 00:59:25;;;;;;;;;;;;;;;1.84;100.00;100590.34;5553016;32;34341;-74
2023/01/22 01:02:30;;;;;;;;;;;;;;;1.80;100.00;100584.44;5552976;32;34605;-73
2023/01/22 01:05:35;;;;;;;;;;;;;;;1.70;100.00;100588.66;5553170;32;35216;-73
2023/01/22 01:08:42;;;;;;;;;;;;;;;1.72;100.00;100590.22;5559349;32;34381;-75
2023/01/22 01:11:51;;;;;;;;;;;;;;;1.68;100.00;100591.38;5559090;32;34452;-74
2023/01/22 01:14:58;;;;;;;;;;;;;;;1.60;100.00;100595.44;5555844;32;34412;-75
2023/01/22 01:18:11;;;;;;;;;;;;;;;1.56;100.00;100594.84;5553946;32;34992;-74
2023/01/22 01:21:18;;;;;;;;;;;;;;;1.58;100.00;100594.75;5554431;32;34311;-75
2023/01/22 01:24:27;;;;;;;;;;;;;;;1.55;100.00;100595.78;5555679;32;34384;-75
2023/01/22 01:27:34;;;;;;;;;;;;;;;1.54;100.00;100596.75;5553024;32;35134;-74
2023/01/22 01:30:41;;;;;;;;;;;;;;;1.48;100.00;100597.16;5552044;32;34586;-73
2023/01/22 01:33:50;;;;;;;;;;;;;;;1.45;100.00;100586.91;5552046;32;34481;-75
2023/01/22 01:36:57;;;;;;;;;;;;;;;1.39;100.00;100597.78;5552021;32;34687;-74
2023/01/22 01:40:01;;;;;;;;;;;;;;;1.38;100.00;100597.88;5552765;32;34660;-75
2023/01/22 01:43:13;;;;;;;;;;;;;;;1.37;100.00;100597.03;5552824;32;34525;-75
2023/01/22 01:46:22;;;;;;;;;;;;;;;1.39;100.00;100603.00;5551939;32;35133;-74
2023/01/22 01:49:35;;;;;;;;;;;;;;;1.34;100.00;100604.25;5551996;32;34482;-75
2023/01/22 01:52:45;;;;;;;;;;;;;;;1.28;100.00;100608.09;5549273;32;34603;-75
2023/01/22 01:55:51;;;;;;;;;;;;;;;1.25;100.00;100606.56;5535214;32;33616;-74
2023/01/22 01:59:01;;;;;;;;;;;;;;;1.22;100.00;100598.91;5548309;32;35728;-75
2023/01/22 02:02:09;;;;;;;;;;;;;;;1.35;100.00;100600.69;5549572;32;34503;-76
2023/01/22 02:05:19;;;;;;;;;;;;;;;1.28;100.00;100597.66;5548940;32;35039;-75
2023/01/22 02:08:25;;;;;;;;;;;;;;;1.18;100.00;100600.06;5548213;32;34405;-75
2023/01/22 02:11:32;;;;;;;;;;;;;;;1.07;100.00;100592.09;5548266;32;34641;-74
2023/01/22 02:14:40;;;;;;;;;;;;;;;1.01;100.00;100587.28;5535873;32;35121;-74
2023/01/22 02:17:48;;;;;;;;;;;;;;;0.98;100.00;100590.09;5553290;32;34324;-74
2023/01/22 02:20:57;;;;;;;;;;;;;;;0.87;100.00;100590.78;5555277;32;34237;-75
2023/01/22 02:24:06;;;;;;;;;;;;;;;0.81;100.00;100585.16;5554959;32;34209;-75
2023/01/22 02:27:13;;;;;;;;;;;;;;;0.82;100.00;100582.41;5568332;32;34493;-74
2023/01/22 02:30:21;;;;;;;;;;;;;;;0.71;100.00;100587.53;5568402;32;34206;-74
2023/01/22 02:33:28;;;;;;;;;;;;;;;0.61;100.00;100590.84;5568323;32;35765;-74
2023/01/22 02:36:39;;;;;;;;;;;;;;;0.53;100.00;100582.66;5568347;32;34568;-74
2023/01/22 02:39:46;;;;;;;;;;;;;;;0.62;100.00;100575.06;5568221;32;35130;-74
2023/01/22 02:42:53;;;;;;;;;;;;;;;0.62;100.00;100567.25;5554359;32;33183;-74
2023/01/22 02:46:02;;;;;;;;;;;;;;;0.59;100.00;100570.03;5568233;32;35275;-74
2023/01/22 02:49:10;;;;;;;;;;;;;;;0.62;100.00;100580.31;5555298;32;34869;-74
2023/01/22 02:52:14;;;;;;;;;;;;;;;0.71;100.00;100574.47;5568226;32;35334;-74
2023/01/22 02:55:22;;;;;;;;;;;;;;;0.66;100.00;100567.88;5554825;32;34825;-74
2023/01/22 02:58:33;;;;;;;;;;;;;;;0.60;100.00;100569.09;5541537;32;33032;-73
2023/01/22 03:01:40;;;;;;;;;;;;;;;0.63;100.00;100570.69;5553428;32;33809;-74
2023/01/22 03:04:49;;;;;;;;;;;;;;;0.69;100.00;100568.50;5554976;32;34305;-73
2023/01/22 03:08:00;;;;;;;;;;;;;;;0.68;100.00;100565.97;5553306;32;34310;-74
2023/01/22 03:11:06;;;;;;;;;;;;;;;0.76;100.00;100556.72;5568170;32;34802;-74
2023/01/22 03:21:17;;;;;;;;;;;;;;;0.66;100.00;100540.00;5567926;32;34230;-75
2023/01/22 03:24:23;;;;;;;;;;;;;;;0.79;100.00;100540.00;5554383;32;35171;-74
2023/01/22 03:27:33;;;;;;;;;;;;;;;0.73;100.00;100543.84;5568029;32;35098;-74
2023/01/22 03:30:39;;;;;;;;;;;;;;;0.76;100.00;100543.69;5555008;32;34715;-74
2023/01/22 03:33:52;;;;;;;;;;;;;;;0.64;100.00;100552.31;5568062;32;34509;-74
2023/01/22 03:37:00;;;;;;;;;;;;;;;0.60;100.00;100548.22;5554870;32;34956;-75
2023/01/22 03:40:09;;;;;;;;;;;;;;;0.61;100.00;100549.06;5554577;32;33971;-75
2023/01/22 03:43:17;;;;;;;;;;;;;;;0.64;100.00;100535.78;5553479;32;33441;-75
2023/01/22 03:46:24;;;;;;;;;;;;;;;0.73;100.00;100536.03;5567902;32;34281;-75
2023/01/22 03:49:32;;;;;;;;;;;;;;;0.80;100.00;100537.31;5541289;32;33309;-74
2023/01/22 03:52:40;;;;;;;;;;;;;;;0.74;100.00;100542.09;5554506;32;34906;-75
2023/01/22 03:55:58;;;;;;;;;;;;;;;0.73;100.00;100538.63;5567650;32;34110;-75
2023/01/22 03:59:05;;;;;;;;;;;;;;;0.74;100.00;100542.94;5567451;32;34518;-75
2023/01/22 04:02:11;;;;;;;;;;;;;;;0.77;100.00;100542.75;5540732;32;33535;-75
2023/01/22 04:05:20;;;;;;;;;;;;;;;0.80;100.00;100552.13;5567532;32;34539;-75
2023/01/22 04:08:28;;;;;;;;;;;;;;;0.96;100.00;100551.97;5540925;32;33515;-75
2023/01/22 04:11:35;;;;;;;;;;;;;;;0.87;100.00;100545.59;5567463;32;35174;-75
2023/01/22 04:14:44;;;;;;;;;;;;;;;0.96;100.00;100549.34;5551928;32;32864;-74
2023/01/22 04:17:51;;;;;;;;;;;;;;;0.93;100.00;100544.31;5567083;32;34466;-74
2023/01/22 04:20:59;;;;;;;;;;;;;;;0.89;100.00;100541.06;5553969;32;34568;-74
2023/01/22 04:24:08;;;;;;;;;;;;;;;0.96;100.00;100539.75;5554080;32;34567;-77
2023/01/22 04:27:16;;;;;;;;;;;;;;;1.03;100.00;100548.81;5567198;32;34598;-74
2023/01/22 04:30:25;;;;;;;;;;;;;;;0.98;100.00;100544.84;5567596;32;34690;-74
2023/01/22 04:33:33;;;;;;;;;;;;;;;0.99;100.00;100547.38;5553826;32;34529;-74
2023/01/22 04:36:42;;;;;;;;;;;;;;;1.05;100.00;100548.72;5553713;32;35072;-74
2023/01/22 04:39:54;;;;;;;;;;;;;;;1.18;100.00;100546.94;5566896;32;34687;-74
2023/01/22 04:43:06;;;;;;;;;;;;;;;1.12;100.00;100539.53;5553894;32;34874;-75
2023/01/22 04:46:13;;;;;;;;;;;;;;;1.19;100.00;100541.63;5566893;32;35049;-75
2023/01/22 04:49:23;;;;;;;;;;;;;;;1.21;100.00;100544.16;5553673;32;34501;-75
2023/01/22 04:52:30;;;;;;;;;;;;;;;1.14;100.00;100541.09;5566880;32;34234;-75
2023/01/22 04:55:40;;;;;;;;;;;;;;;1.15;100.00;100542.78;5540280;32;34423;-74
2023/01/22 04:58:49;;;;;;;;;;;;;;;1.26;100.00;100545.47;5566467;32;34527;-75
2023/01/22 05:01:57;;;;;;;;;;;;;;;1.23;100.00;100537.88;5566574;32;34863;-73
2023/01/22 05:05:06;;;;;;;;;;;;;;;1.27;100.00;100526.25;5566669;32;34654;-74
2023/01/22 05:08:12;;;;;;;;;;;;;;;1.39;100.00;100539.44;5553083;32;34454;-74
2023/01/22 05:11:18;;;;;;;;;;;;;;;1.32;100.00;100549.47;5553251;32;34217;-74
2023/01/22 05:14:27;;;;;;;;;;;;;;;1.30;100.00;100556.59;5566249;32;35075;-74
2023/01/22 05:17:34;;;;;;;;;;;;;;;1.27;100.00;100567.22;5552872;32;34918;-73
2023/01/22 05:20:43;;;;;;;;;;;;;;;1.36;100.00;100578.81;5527388;32;34939;-74
2023/01/22 05:23:54;;;;;;;;;;;;;;;1.36;100.00;100589.28;5527450;32;35177;-76
2023/01/22 05:27:05;;;;;;;;;;;;;;;1.37;100.00;100586.56;5529671;32;34597;-75
2023/01/22 05:30:13;;;;;;;;;;;;;;;1.41;100.00;100584.59;5530092;32;34962;-75
2023/01/22 05:33:28;;;;;;;;;;;;;;;1.38;100.00;100593.47;5529974;32;35083;-74
2023/01/22 05:36:34;;;;;;;;;;;;;;;1.36;100.00;100605.81;5529242;32;34647;-74
2023/01/22 05:39:43;;;;;;;;;;;;;;;1.39;100.00;100600.41;5530057;32;34567;-74
2023/01/22 05:42:51;;;;;;;;;;;;;;;1.39;100.00;100607.41;5516483;32;33481;-74
2023/01/22 05:46:01;;;;;;;;;;;;;;;1.44;100.00;100607.91;5528797;32;34662;-74
2023/01/22 05:49:08;;;;;;;;;;;;;;;1.40;100.00;100617.75;5529772;32;35169;-75
2023/01/22 05:52:17;;;;;;;;;;;;;;;1.63;100.00;100617.03;5528908;32;34439;-74
2023/01/22 05:55:23;;;;;;;;;;;;;;;1.58;100.00;100626.13;5528876;32;33399;-74
2023/01/22 05:58:32;;;;;;;;;;;;;;;1.54;100.00;100630.72;5528927;32;34647;-75
2023/01/22 06:01:39;;;;;;;;;;;;;;;1.53;100.00;100629.03;5529879;32;34329;-74
2023/01/22 06:04:46;;;;;;;;;;;;;;;1.49;100.00;100637.19;5516366;32;34415;-74
2023/01/22 06:07:53;;;;;;;;;;;;;;;1.50;100.00;100638.88;5529178;32;35085;-74
2023/01/22 06:11:09;;;;;;;;;;;;;;;1.66;100.00;100642.94;5516845;32;34197;-74
2023/01/22 06:14:17;;;;;;;;;;;;;;;1.61;100.00;100646.81;5529636;32;34645;-74
2023/01/22 06:17:25;;;;;;;;;;;;;;;1.69;100.00;100655.81;5528764;32;34897;-75
2023/01/22 06:20:32;;;;;;;;;;;;;;;1.68;100.00;100654.16;5546988;32;33842;-74
2023/01/22 06:23:40;;;;;;;;;;;;;;;1.66;100.00;100658.63;5548024;32;34231;-74
2023/01/22 06:26:47;;;;;;;;;;;;;;;1.71;100.00;100671.41;5547955;32;34437;-74
2023/01/22 06:29:54;;;;;;;;;;;;;;;1.71;100.00;100668.78;5548080;32;34540;-74
2023/01/22 06:33:02;;;;;;;;;;;;;;;1.64;100.00;100672.78;5548931;32;34980;-75
2023/01/22 06:36:09;;;;;;;;;;;;;;;1.64;100.00;100696.31;5547273;32;34959;-74
2023/01/22 06:39:15;;;;;;;;;;;;;;;1.67;100.00;100689.09;5548747;32;34478;-75
2023/01/22 06:42:21;;;;;;;;;;;;;;;1.77;100.00;100694.53;5547943;32;34573;-75
2023/01/22 06:45:29;;;;;;;;;;;;;;;1.72;100.00;100700.06;5547887;32;34980;-75
2023/01/22 06:48:42;;;;;;;;;;;;;;;1.71;100.00;100703.62;5548931;32;34953;-75
2023/01/22 06:51:47;;;;;;;;;;;;;;;1.79;100.00;100697.06;5548620;32;35217;-75
2023/01/22 06:54:55;;;;;;;;;;;;;;;1.86;100.00;100690.44;5565372;32;34628;-75
2023/01/22 06:58:01;;;;;;;;;;;;;;;1.84;100.00;100693.16;5567799;32;34255;-75
2023/01/22 07:01:09;;;;;;;;;;;;;;;1.89;100.00;100691.06;5567768;32;35172;-76
2023/01/22 07:04:15;;;;;;;;;;;;;;;1.96;100.00;100697.56;5566983;32;34516;-75
2023/01/22 07:07:21;;;;;;;;;;;;;;;1.85;100.00;100701.84;5567168;32;34610;-75
2023/01/22 07:10:30;;;;;;;;;;;;;;;1.80;100.00;100711.78;5568027;32;35153;-75
2023/01/22 07:13:38;;;;;;;;;;;;;;;1.92;100.00;100714.41;5567217;32;34999;-74
2023/01/22 07:16:47;;;;;;;;;;;;;;;2.10;100.00;100720.16;5566057;32;34993;-74
2023/01/22 07:19:55;;;;;;;;;;;;;;;2.19;100.00;100725.59;5557212;32;35102;-75
2023/01/22 07:23:01;;;;;;;;;;;;;;;2.31;100.00;100728.31;5567023;32;35265;-76
2023/01/22 07:26:10;;;;;;;;;;;;;;;2.17;100.00;100737.12;5566822;32;33931;-75
2023/01/22 07:29:15;;;;;;;;;;;;;;;2.19;100.00;100741.31;5567941;32;34446;-75
2023/01/22 07:32:21;;;;;;;;;;;;;;;2.24;100.00;100746.22;5567760;32;34687;-74
2023/01/22 07:35:29;;;;;;;;;;;;;;;2.23;100.00;100752.41;5564844;32;34801;-74
2023/01/22 07:38:36;;;;;;;;;;;;;;;2.18;100.00;100754.47;5554046;32;35200;-74
2023/01/22 07:41:42;;;;;;;;;;;;;;;2.14;100.00;100761.72;5567723;32;34237;-74
2023/01/22 07:44:49;;;;;;;;;;;;;;;2.24;100.00;100771.56;5553777;32;34336;-74
2023/01/22 07:47:59;;;;;;;;;;;;;;;2.35;100.00;100774.28;5567491;32;34861;-74
2023/01/22 07:51:06;;;;;;;;;;;;;;;2.27;100.00;100771.38;5567720;32;34589;-74
2023/01/22 07:54:13;;;;;;;;;;;;;;;2.26;100.00;100780.16;5566579;32;35146;-75
2023/01/22 07:57:24;;;;;;;;;;;;;;;2.46;100.00;100770.00;5567574;32;34850;-74
2023/01/22 08:00:34;;;;;;;;;;;;;;;2.46;100.00;100783.09;5566688;32;34168;-74
2023/01/22 08:03:41;;;;;;;;;;;;;;;2.70;100.00;100784.94;5557674;32;34412;-74
2023/01/22 08:06:49;;;;;;;;;;;;;;;2.78;100.00;100788.69;5553880;32;34500;-74
2023/01/22 08:09:58;;;;;;;;;;;;;;;2.72;100.00;100785.63;5550282;32;34393;-73
2023/01/22 08:13:05;;;;;;;;;;;;;;;2.69;100.00;100796.34;5547771;32;34682;-74
2023/01/22 08:16:12;;;;;;;;;;;;;;;2.81;100.00;100795.50;5547826;32;34261;-75
2023/01/22 08:19:17;;;;;;;;;;;;;;;3.04;100.00;100794.69;5556351;32;35029;-75
2023/01/22 08:22:23;;;;;;;;;;;;;;;3.16;100.00;100799.06;5567111;32;34595;-75
2023/01/22 08:25:32;;;;;;;;;;;;;;;3.21;100.00;100809.19;5554130;32;34442;-75
2023/01/22 08:28:40;;;;;;;;;;;;;;;3.03;100.00;100812.22;5567049;32;34898;-74
2023/01/22 08:31:52;;;;;;;;;;;;;;;3.25;100.00;100816.75;5552905;32;34166;-74
2023/01/22 08:35:01;;;;;;;;;;;;;;;3.38;100.00;100821.94;5540773;32;33879;-74
2023/01/22 08:38:09;;;;;;;;;;;;;;;3.42;100.00;100826.03;5566916;32;35126;-74
2023/01/22 08:41:15;;;;;;;;;;;;;;;3.37;100.00;100838.62;5553382;32;34422;-74
2023/01/22 08:44:21;;;;;;;;;;;;;;;3.60;100.00;100835.16;5566744;32;34220;-75
2023/01/22 08:47:28;;;;;;;;;;;;;;;3.76;100.00;100842.75;5553414;32;34376;-74
2023/01/22 08:50:34;;;;;;;;;;;;;;;3.73;100.00;100846.44;5566511;32;34508;-74
2023/01/22 08:53:42;;;;;;;;;;;;;;;3.86;100.00;100857.72;5565364;32;34681;-74
2023/01/22 08:56:49;;;;;;;;;;;;;;;3.61;100.00;100857.00;5566398;32;34628;-74
2023/01/22 08:59:58;;;;;;;;;;;;;;;4.10;100.00;100854.22;5566487;32;34491;-73
2023/01/22 09:03:05;;;;;;;;;;;;;;;3.97;100.00;100863.97;5568996;32;35256;-73
2023/01/22 09:06:12;;;;;;;;;;;;;;;3.85;100.00;100868.31;5567817;32;34302;-73
2023/01/22 09:09:18;;;;;;;;;;;;;;;3.95;100.00;100871.94;5569131;32;34876;-74
2023/01/22 09:12:25;;;;;;;;;;;;;;;3.83;100.00;100873.66;5567821;32;34725;-73
2023/01/22 09:15:31;;;;;;;;;;;;;;;3.76;100.00;100880.34;5568925;32;34400;-72
2023/01/22 09:18:38;;;;;;;;;;;;;;;3.90;100.00;100876.69;5568768;32;33761;-72
2023/01/22 09:21:45;;;;;;;;;;;;;;;3.79;100.00;100879.25;5555367;32;33352;-72
2023/01/22 09:24:53;;;;;;;;;;;;;;;3.73;100.00;100880.53;5567794;32;34316;-72
2023/01/22 09:28:00;;;;;;;;;;;;;;;3.92;100.00;100870.38;5568380;32;34757;-73
2023/01/22 09:31:08;;;;;;;;;;;;;;;4.20;100.00;100877.06;5568614;32;35181;-73
2023/01/22 09:34:14;;;;;;;;;;;;;;;4.03;100.00;100877.44;5555059;32;34794;-72
2023/01/22 09:37:21;;;;;;;;;;;;;;;4.20;100.00;100874.44;5568755;32;34819;-72
2023/01/22 09:40:30;;;;;;;;;;;;;;;4.07;100.00;100881.53;5542411;32;34509;-72
2023/01/22 09:43:44;;;;;;;;;;;;;;;4.11;100.00;100890.03;5568282;32;34469;-72
2023/01/22 09:46:54;;;;;;;;;;;;;;;3.87;100.00;100895.31;5568667;32;34322;-72
2023/01/22 09:50:06;;;;;;;;;;;;;;;3.84;100.00;100903.38;5564009;32;33535;-73
2023/01/22 09:53:15;;;;;;;;;;;;;;;3.68;100.00;100910.72;5554387;32;34182;-73
2023/01/22 09:56:40;;;;;;;;;;;;;;;3.62;100.00;100901.50;5558083;32;34168;-73
2023/01/22 09:59:50;;;;;;;;;;;;;;;3.71;100.00;100894.72;5568517;32;35288;-73
2023/01/22 10:03:04;;;;;;;;;;;;;;;3.81;100.00;100899.22;5555417;32;34875;-73
2023/01/22 10:06:17;;;;;;;;;;;;;;;3.87;100.00;100893.50;5568570;32;34622;-73
2023/01/22 10:09:23;;;;;;;;;;;;;;;3.89;100.00;100898.63;5554839;32;35003;-73
2023/01/22 10:12:33;;;;;;;;;;;;;;;4.00;100.00;100900.47;5554216;32;34198;-74
2023/01/22 10:15:40;;;;;;;;;;;;;;;3.92;100.00;100904.50;5554776;32;35491;-73
2023/01/22 10:18:52;;;;;;;;;;;;;;;3.86;100.00;100896.25;5568247;32;34036;-73
2023/01/22 10:22:06;;;;;;;;;;;;;;;3.89;100.00;100896.00;5568435;32;35000;-74
2023/01/22 10:25:15;;;;;;;;;;;;;;;3.66;100.00;100913.44;5568307;32;35294;-74
2023/01/22 10:28:24;;;;;;;;;;;;;;;3.61;100.00;100917.34;5568112;32;35147;-75
2023/01/22 10:31:30;;;;;;;;;;;;;;;3.67;100.00;100916.91;5568354;32;34855;-74
2023/01/22 10:34:35;;;;;;;;;;;;;;;3.67;100.00;100915.13;5554518;32;34421;-75
2023/01/22 10:37:46;;;;;;;;;;;;;;;3.63;100.00;100924.13;5568399;32;35030;-75
2023/01/22 10:40:55;;;;;;;;;;;;;;;3.79;100.00;100910.75;5554801;32;34037;-75
2023/01/22 10:44:16;;;;;;;;;;;;;;;3.86;100.00;100920.72;5568202;32;35055;-75
2023/01/22 10:47:21;;;;;;;;;;;;;;;3.67;100.00;100920.38;5541569;32;34597;-74
2023/01/22 10:50:28;;;;;;;;;;;;;;;3.53;100.00;100924.94;5568072;32;34840;-76
2023/01/22 10:53:34;;;;;;;;;;;;;;;3.46;100.00;100927.97;5568670;32;34707;-75
2023/01/22 10:56:41;;;;;;;;;;;;;;;3.46;100.00;100917.47;5568069;32;34471;-77
2023/01/22 10:59:52;;;;;;;;;;;;;;;3.37;100.00;100920.75;5554763;32;34953;-76
2023/01/22 11:03:01;;;;;;;;;;;;;;;3.40;100.00;100922.31;5554713;32;34049;-75
2023/01/22 11:06:12;;;;;;;;;;;;;;;3.46;100.00;100921.87;5554608;32;34522;-75
2023/01/22 11:09:19;;;;;;;;;;;;;;;3.44;100.00;100915.91;5554644;32;35042;-75
2023/01/22 11:12:30;;;;;;;;;;;;;;;3.43;100.00;100924.75;5567868;32;34600;-75
2023/01/22 11:15:52;;;;;;;;;;;;;;;3.55;100.00;100923.84;5554761;32;34591;-74
2023/01/22 11:19:02;;;;;;;;;;;;;;;3.60;100.00;100913.88;5567740;32;34287;-75
2023/01/22 11:22:23;;;;;;;;;;;;;;;3.63;100.00;100920.69;5567383;32;35043;-74
2023/01/22 11:25:33;;;;;;;;;;;;;;;3.74;100.00;100926.00;5554324;32;34327;-74
2023/01/22 11:28:45;;;;;;;;;;;;;;;3.90;100.00;100930.03;5554199;32;34369;-73
2023/01/22 11:31:55;;;;;;;;;;;;;;;3.96;100.00;100931.38;5553571;32;34335;-74
2023/01/22 11:35:09;;;;;;;;;;;;;;;3.76;100.00;100938.06;5553138;32;35203;-73
2023/01/22 11:38:21;;;;;;;;;;;;;;;3.69;100.00;100944.69;5552998;32;33261;-73
2023/01/22 11:41:26;;;;;;;;;;;;;;;3.64;100.00;100949.44;5540705;32;33232;-73
2023/01/22 11:44:37;;;;;;;;;;;;;;;3.63;100.00;100950.38;5554052;32;34782;-73
2023/01/22 11:47:45;;;;;;;;;;;;;;;4.01;100.00;100938.91;5566885;32;34977;-73
2023/01/22 11:51:12;;;;;;;;;;;;;;;4.00;100.00;100938.06;5567437;32;34349;-73
2023/01/22 11:54:37;;;;;;;;;;;;;;;4.03;100.00;100932.59;5560840;32;34364;-73
2023/01/22 11:57:56;;;;;;;;;;;;;;;4.03;100.00;100937.00;5554045;32;34402;-73
2023/01/22 12:01:05;;;;;;;;;;;;;;;4.17;100.00;100940.28;5540943;32;32912;-73
2023/01/22 12:04:12;;;;;;;;;;;;;;;4.12;100.00;100941.56;5567411;32;34308;-72
2023/01/22 12:07:39;;;;;;;;;;;;;;;4.11;100.00;100947.78;5566748;32;34664;-73
2023/01/22 12:10:49;;;;;;;;;;;;;;;4.14;100.00;100944.94;5553992;32;34236;-73
2023/01/22 12:14:21;;;;;;;;;;;;;;;4.12;100.00;100952.91;5554531;32;34259;-73
2023/01/22 12:17:39;;;;;;;;;;;;;;;4.16;100.00;100958.78;5498643;32;1351279;-74
2023/01/22 12:20:48;;;;;;;;;;;;;;;4.34;100.00;100963.53;5533946;32;33218;-74
2023/01/22 12:23:58;;;;;;;;;;;;;;;4.22;100.00;100964.41;5547691;32;34383;-74
2023/01/22 12:27:05;;;;;;;;;;;;;;;4.19;100.00;100969.06;5533636;32;35262;-73
2023/01/22 12:30:23;;;;;;;;;;;;;;;4.22;100.00;100960.94;5547206;32;34379;-73
2023/01/22 12:33:31;;;;;;;;;;;;;;;4.23;100.00;100968.72;5547160;32;34233;-73
2023/01/22 12:36:41;;;;;;;;;;;;;;;4.27;100.00;100974.56;5545674;32;34573;-74
2023/01/22 12:40:04;;;;;;;;;;;;;;;4.26;100.00;100979.00;5546300;32;33721;-73
2023/01/22 12:43:12;;;;;;;;;;;;;;;4.25;100.00;100987.00;5528195;32;35056;-74
2023/01/22 12:46:36;;;;;;;;;;;;;;;4.48;100.00;100982.66;5527356;32;35497;-74
2023/01/22 12:49:45;;;;;;;;;;;;;;;4.50;100.00;100989.50;5527024;32;35229;-74
2023/01/22 12:52:58;;;;;;;;;;;;;;;4.31;100.00;100984.75;5526945;32;35499;-73
2023/01/22 12:56:09;;;;;;;;;;;;;;;4.26;100.00;100989.50;5527073;32;34785;-74
2023/01/22 12:59:33;;;;;;;;;;;;;;;4.51;100.00;101001.66;5526990;32;33970;-74
2023/01/22 13:02:41;;;;;;;;;;;;;;;4.45;100.00;101001.31;5526984;32;34513;-74
2023/01/22 13:05:45;;;;;;;;;;;;;;;4.45;100.00;101001.31;5527774;32;34842;-74
2023/01/22 13:08:51;;;;;;;;;;;;;;;4.48;100.00;101006.31;5526885;32;34937;-74
2023/01/22 13:12:07;;;;;;;;;;;;;;;4.32;100.00;101007.44;5540562;32;35076;-74
2023/01/22 13:15:19;;;;;;;;;;;;;;;4.30;100.00;101011.16;5526719;32;35019;-73
2023/01/22 13:18:26;;;;;;;;;;;;;;;4.29;100.00;101018.19;5532966;32;34396;-74
2023/01/22 13:21:32;;;;;;;;;;;;;;;4.34;100.00;101025.72;5551636;31;34542;-74
2023/01/22 13:24:52;;;;;;;;;;;;;;;4.43;100.00;101022.41;5552827;32;34685;-74
2023/01/22 13:28:03;;;;;;;;;;;;;;;4.54;100.00;101034.78;5552921;32;34917;-74
2023/01/22 13:31:15;;;;;;;;;;;;;;;4.54;100.00;101032.16;5565058;32;34853;-74
2023/01/22 13:34:22;;;;;;;;;;;;;;;4.61;100.00;101042.06;5552490;32;34859;-72
2023/01/22 13:37:29;;;;;;;;;;;;;;;4.73;100.00;101038.56;5565527;32;34840;-73
2023/01/22 13:40:35;;;;;;;;;;;;;;;4.83;100.00;101046.59;5564767;32;33495;-73
2023/01/22 13:43:55;;;;;;;;;;;;;;;4.88;100.00;101046.25;5565735;32;34385;-73
2023/01/22 13:47:02;;;;;;;;;;;;;;;4.78;100.00;101046.94;5567775;32;34483;-72
2023/01/22 13:50:16;;;;;;;;;;;;;;;4.69;100.00;101055.50;5567558;32;34345;-72
2023/01/22 13:53:23;;;;;;;;;;;;;;;4.76;100.00;101055.88;5567474;32;35125;-74
2023/01/22 13:56:31;;;;;;;;;;;;;;;4.80;100.00;101066.03;5567285;31;34531;-73
2023/01/22 13:59:38;;;;;;;;;;;;;;;4.86;100.00;101075.25;5567525;32;34348;-72
2023/01/22 14:02:46;;;;;;;;;;;;;;;4.92;100.00;101077.44;5567673;32;34598;-73
2023/01/22 14:06:06;;;;;;;;;;;;;;;5.06;100.00;101084.28;5567435;32;34113;-73
2023/01/22 14:09:24;;;;;;;;;;;;;;;4.90;100.00;101083.75;5567361;32;34295;-73
2023/01/22 14:12:32;;;;;;;;;;;;;;;4.86;100.00;101090.19;5568223;32;34950;-73
2023/01/22 14:15:41;;;;;;;;;;;;;;;4.79;100.00;101092.47;5568387;32;34612;-73
2023/01/22 14:18:49;;;;;;;;;;;;;;;4.80;100.00;101081.81;5566982;32;35232;-72
2023/01/22 14:21:57;;;;;;;;;;;;;;;4.84;100.00;101092.13;5568388;32;34264;-73
2023/01/22 14:25:05;;;;;;;;;;;;;;;4.79;100.00;101095.09;5555096;32;34898;-73
2023/01/22 14:28:11;;;;;;;;;;;;;;;4.58;100.00;101104.53;5554521;32;34853;-72
2023/01/22 14:31:15;;;;;;;;;;;;;;;4.60;100.00;101110.53;5568247;32;34868;-73
2023/01/22 14:34:21;;;;;;;;;;;;;;;4.66;100.00;101116.16;5554201;32;34271;-73
2023/01/22 14:37:26;;;;;;;;;;;;;;;4.71;100.00;101126.34;5553987;31;34248;-73
2023/01/22 14:40:39;;;;;;;;;;;;;;;4.75;100.00;101122.53;5555731;32;34225;-73
2023/01/22 14:43:49;;;;;;;;;;;;;;;4.65;100.00;101125.00;5555265;32;34277;-73
2023/01/22 14:46:56;;;;;;;;;;;;;;;4.56;100.00;101127.44;5566615;32;34576;-73
2023/01/22 14:50:04;;;;;;;;;;;;;;;4.65;100.00;101130.25;5565176;32;34529;-73
2023/01/22 14:53:11;;;;;;;;;;;;;;;4.56;100.00;101122.19;5554434;32;34296;-74
2023/01/22 14:56:18;;;;;;;;;;;;;;;4.61;100.00;101135.84;5542339;32;34584;-73
2023/01/22 14:59:24;;;;;;;;;;;;;;;4.53;100.00;101132.94;5567464;32;35207;-74
2023/01/22 15:02:36;;;;;;;;;;;;;;;4.49;100.00;101134.09;5567405;32;35068;-74
2023/01/22 15:05:43;;;;;;;;;;;;;;;4.46;100.00;101129.91;5568037;32;34464;-73
2023/01/22 15:08:51;;;;;;;;;;;;;;;4.46;100.00;101136.94;5567948;32;34493;-73
2023/01/22 15:11:57;;;;;;;;;;;;;;;4.61;100.00;101144.56;5567998;32;34438;-74
2023/01/22 15:15:07;;;;;;;;;;;;;;;4.56;100.00;101148.47;5554747;32;33490;-73
2023/01/22 15:18:14;;;;;;;;;;;;;;;4.57;100.00;101156.25;5554413;32;34192;-74
2023/01/22 15:21:23;;;;;;;;;;;;;;;4.60;100.00;101161.28;5554822;32;35156;-74
2023/01/22 15:24:27;;;;;;;;;;;;;;;4.55;100.00;101154.69;5567836;32;34902;-74
2023/01/22 15:27:34;;;;;;;;;;;;;;;4.56;100.00;101162.44;5567263;32;34564;-74
2023/01/22 15:30:47;;;;;;;;;;;;;;;4.52;100.00;101163.63;5567756;32;34589;-73
2023/01/22 15:33:57;;;;;;;;;;;;;;;4.52;100.00;101160.16;5554515;32;35218;-73
2023/01/22 15:37:04;;;;;;;;;;;;;;;4.55;100.00;101167.84;5567792;32;34981;-73
2023/01/22 15:40:10;;;;;;;;;;;;;;;4.55;100.00;101167.84;5541742;32;34117;-73
2023/01/22 15:43:16;;;;;;;;;;;;;;;4.66;100.00;101181.03;5567649;32;34518;-73
2023/01/22 15:46:26;;;;;;;;;;;;;;;4.44;100.00;101186.13;5566108;32;34560;-73
2023/01/22 15:49:33;;;;;;;;;;;;;;;4.47;100.00;101189.37;5555502;32;34623;-73
2023/01/22 15:52:42;;;;;;;;;;;;;;;4.44;100.00;101197.50;5567552;32;34398;-73
2023/01/22 15:55:49;;;;;;;;;;;;;;;4.47;100.00;101212.19;5567055;32;34342;-73
2023/01/22 15:58:56;;;;;;;;;;;;;;;4.48;100.00;101209.47;5567242;32;34331;-73
2023/01/22 16:02:00;;;;;;;;;;;;;;;4.54;100.00;101216.06;5553715;32;35189;-73
2023/01/22 16:05:05;;;;;;;;;;;;;;;4.50;100.00;101201.47;5567311;32;35268;-74
2023/01/22 16:08:11;;;;;;;;;;;;;;;4.63;100.00;101200.50;5553694;32;34775;-73
2023/01/22 16:11:17;;;;;;;;;;;;;;;4.64;100.00;101203.97;5567002;32;35065;-73
2023/01/22 16:14:23;;;;;;;;;;;;;;;4.69;100.00;101199.22;5553946;32;34730;-73